Time;durP1;ratioP1;P1;durP2;ratioP2;P2;SDS_P1;SDS_P2;PMS_P1;PMS_P2;Temp;Humidity;BMP_temperature;BMP_pressure;BME280_temperature;BME280_humidity;BME280_pressure;Samples;Min_cycle;Max_cycle;Signal;HPM_P1;HPM_P2
2023/05/30 00:01:38;;;;;;;7.32;3.75;;;19.00;66.90;;;;;;6253110;28;20065;-77
2023/05/30 00:04:41;;;;;;;8.20;3.90;;;19.10;66.30;;;;;;6254255;28;20050;-75
2023/05/30 00:07:43;;;;;;;6.88;3.63;;;19.20;66.50;;;;;;6252113;28;20042;-75
2023/05/30 00:10:45;;;;;;;8.18;3.78;;;19.30;66.20;;;;;;6252060;28;20042;-75
2023/05/30 00:13:48;;;;;;;8.15;3.40;;;19.20;66.50;;;;;;6252002;28;20060;-75
2023/05/30 00:16:51;;;;;;;7.18;3.35;;;19.20;66.80;;;;;;6252902;28;20052;-75
2023/05/30 00:19:54;;;;;;;9.82;3.72;;;19.20;67.00;;;;;;6257309;28;20053;-74
2023/05/30 00:22:58;;;;;;;7.88;3.78;;;19.00;67.80;;;;;;6256412;28;20419;-74
2023/05/30 00:26:01;;;;;;;5.55;3.45;;;19.00;68.10;;;;;;6256534;28;20042;-74
2023/05/30 00:29:03;;;;;;;6.97;3.80;;;18.80;68.80;;;;;;6255063;28;20521;-75
2023/05/30 00:32:06;;;;;;;8.63;3.75;;;18.80;69.20;;;;;;6255493;28;20179;-75
2023/05/30 00:35:10;;;;;;;7.10;3.75;;;18.50;70.00;;;;;;6255762;28;20049;-75
2023/05/30 00:38:12;;;;;;;9.50;3.80;;;18.40;70.30;;;;;;6259796;28;20053;-76
2023/05/30 00:41:14;;;;;;;9.15;4.00;;;18.60;69.70;;;;;;6260232;28;20147;-75
2023/05/30 00:44:16;;;;;;;9.65;3.60;;;18.60;69.30;;;;;;6255729;28;20042;-76
2023/05/30 00:47:19;;;;;;;6.85;3.70;;;18.70;68.70;;;;;;6250849;28;20480;-74
2023/05/30 00:50:25;;;;;;;7.90;3.75;;;18.80;68.60;;;;;;6250114;28;20411;-76
2023/05/30 00:53:28;;;;;;;7.68;3.95;;;18.80;68.30;;;;;;6250841;28;20584;-75
2023/05/30 00:56:31;;;;;;;8.27;3.63;;;18.80;68.30;;;;;;6250189;28;20406;-76
2023/05/30 00:59:33;;;;;;;7.50;3.80;;;18.50;68.50;;;;;;6250552;28;20045;-75
2023/05/30 01:02:35;;;;;;;7.07;3.60;;;18.60;68.80;;;;;;6250266;28;20056;-76
2023/05/30 01:05:39;;;;;;;7.20;3.70;;;18.60;68.60;;;;;;6231708;28;20045;-75
2023/05/30 01:08:41;;;;;;;8.70;3.88;;;18.50;68.70;;;;;;6249411;28;20052;-76
2023/05/30 01:12:00;;;;;;;5.95;3.22;;;18.60;68.90;;;;;;6249476;28;20045;-75
2023/05/30 01:15:11;;;;;;;10.93;3.72;;;18.60;68.80;;;;;;6250827;28;20081;-73
2023/05/30 01:18:23;;;;;;;7.40;3.50;;;18.50;68.70;;;;;;6263844;28;20072;-75
2023/05/30 01:21:30;;;;;;;7.90;4.10;;;18.40;69.20;;;;;;6260261;28;20096;-74
2023/05/30 01:24:37;;;;;;;8.27;4.07;;;18.50;69.40;;;;;;6272006;28;20065;-77
2023/05/30 01:27:56;;;;;;;7.93;3.83;;;18.50;69.20;;;;;;6258275;28;20048;-75
2023/05/30 01:30:59;;;;;;;6.30;3.33;;;18.40;69.20;;;;;;6252412;28;20045;-75
2023/05/30 01:34:02;;;;;;;6.97;3.83;;;18.40;69.50;;;;;;6248821;28;20551;-75
2023/05/30 01:37:05;;;;;;;9.77;4.22;;;18.50;69.80;;;;;;6248186;28;20414;-75
2023/05/30 01:40:09;;;;;;;9.73;4.15;;;18.40;69.90;;;;;;6248648;28;20100;-73
2023/05/30 01:43:29;;;;;;;7.53;3.75;;;18.30;70.30;;;;;;6248697;28;20042;-75
2023/05/30 01:46:34;;;;;;;8.00;3.92;;;18.30;70.70;;;;;;6248509;28;20049;-75
2023/05/30 01:49:46;;;;;;;6.13;3.50;;;18.20;71.00;;;;;;6248223;28;20046;-75
2023/05/30 01:52:53;;;;;;;8.68;3.92;;;18.20;71.30;;;;;;6249112;28;20384;-76
2023/05/30 01:55:59;;;;;;;6.53;3.45;;;17.70;73.00;;;;;;6248835;28;20491;-76
2023/05/30 01:59:05;;;;;;;6.75;3.60;;;17.80;73.80;;;;;;6251471;28;20045;-74
2023/05/30 02:02:08;;;;;;;6.75;3.72;;;17.40;74.50;;;;;;6249582;28;20140;-74
2023/05/30 02:05:10;;;;;;;5.95;3.58;;;17.70;74.60;;;;;;6248160;28;20052;-74
2023/05/30 02:08:11;;;;;;;6.03;3.60;;;17.70;74.30;;;;;;6248034;28;20410;-74
2023/05/30 02:11:13;;;;;;;6.80;3.33;;;17.80;74.70;;;;;;6247777;28;20057;-74
2023/05/30 02:14:17;;;;;;;10.00;3.47;;;17.80;75.10;;;;;;6247937;28;20060;-76
2023/05/30 02:17:20;;;;;;;6.30;3.40;;;17.80;74.90;;;;;;6247731;28;20054;-75
2023/05/30 02:20:22;;;;;;;6.43;3.60;;;17.80;75.30;;;;;;6248127;28;20076;-76
2023/05/30 02:23:24;;;;;;;7.05;3.42;;;17.60;75.70;;;;;;6247544;28;20423;-76
2023/05/30 02:26:27;;;;;;;6.82;3.38;;;17.70;74.90;;;;;;6247883;28;20482;-74
2023/05/30 02:29:30;;;;;;;5.30;2.97;;;17.40;75.50;;;;;;6230105;28;20060;-75
2023/05/30 02:32:32;;;;;;;7.50;3.60;;;17.50;76.10;;;;;;6247872;28;20045;-75
2023/05/30 02:35:34;;;;;;;9.05;4.20;;;17.50;76.10;;;;;;6247661;28;20049;-74
2023/05/30 02:38:36;;;;;;;7.32;3.92;;;17.60;75.80;;;;;;6247716;28;20049;-76
2023/05/30 02:41:38;;;;;;;8.60;4.13;;;17.60;75.50;;;;;;6247283;28;20415;-76
2023/05/30 02:44:41;;;;;;;6.20;3.33;;;17.50;75.80;;;;;;6247433;28;20103;-75
2023/05/30 02:47:43;;;;;;;7.53;3.53;;;17.50;76.00;;;;;;6247726;28;20045;-74
2023/05/30 02:50:45;;;;;;;7.28;3.80;;;17.50;76.70;;;;;;6247370;28;20057;-75
2023/05/30 02:53:47;;;;;;;7.82;3.92;;;17.40;76.40;;;;;;6247276;28;20049;-76
2023/05/30 02:56:49;;;;;;;7.28;3.72;;;17.30;76.70;;;;;;6247224;28;20049;-74
2023/05/30 02:59:52;;;;;;;9.13;3.97;;;17.30;76.60;;;;;;6247590;28;20064;-73
2023/05/30 03:02:54;;;;;;;7.30;4.15;;;17.30;76.60;;;;;;6247697;28;20200;-75
2023/05/30 03:05:57;;;;;;;6.45;3.60;;;17.30;76.60;;;;;;6248906;28;20136;-74
2023/05/30 03:09:00;;;;;;;6.80;3.78;;;17.30;76.90;;;;;;6249249;28;20084;-74
2023/05/30 03:12:03;;;;;;;7.32;3.70;;;17.10;77.20;;;;;;6252549;28;20214;-75
2023/05/30 03:15:09;;;;;;;6.95;4.00;;;17.20;77.10;;;;;;6251981;28;20455;-75
2023/05/30 03:18:11;;;;;;;7.18;4.07;;;17.20;76.90;;;;;;6251557;28;20056;-74
2023/05/30 03:21:13;;;;;;;7.20;4.22;;;17.20;77.00;;;;;;6251639;28;20061;-75
2023/05/30 03:24:15;;;;;;;7.95;3.90;;;17.20;77.40;;;;;;6251898;28;20046;-75
2023/05/30 03:27:17;;;;;;;8.02;3.63;;;17.20;77.50;;;;;;6251685;28;20061;-76
2023/05/30 03:30:25;;;;;;;6.75;3.97;;;17.10;78.00;;;;;;6251481;28;20064;-79
2023/05/30 03:33:28;;;;;;;6.90;3.80;;;17.10;77.90;;;;;;6251908;28;20144;-76
2023/05/30 03:36:31;;;;;;;8.35;4.32;;;17.10;78.20;;;;;;6251560;28;20045;-76
2023/05/30 03:39:32;;;;;;;8.48;4.20;;;17.00;78.50;;;;;;6251666;28;20057;-76
2023/05/30 03:42:36;;;;;;;8.68;3.83;;;17.00;78.90;;;;;;6251828;28;20045;-76
2023/05/30 03:45:39;;;;;;;8.15;3.97;;;16.90;79.00;;;;;;6251572;28;20100;-75
2023/05/30 03:48:41;;;;;;;7.70;4.07;;;16.90;79.00;;;;;;6251334;28;20053;-76
2023/05/30 03:51:42;;;;;;;6.38;3.50;;;16.90;79.40;;;;;;6258890;28;20526;-75
2023/05/30 03:54:45;;;;;;;6.47;3.75;;;16.80;79.60;;;;;;6258706;28;20054;-76
2023/05/30 03:57:47;;;;;;;7.05;4.03;;;16.60;79.70;;;;;;6260813;28;20053;-74
2023/05/30 04:00:50;;;;;;;9.27;3.92;;;16.60;80.20;;;;;;6260982;28;20049;-76
2023/05/30 04:03:52;;;;;;;7.28;3.88;;;16.60;80.50;;;;;;6261905;28;20049;-76
2023/05/30 04:06:55;;;;;;;8.48;3.75;;;16.60;81.10;;;;;;6260365;28;20495;-75
2023/05/30 04:09:57;;;;;;;6.85;3.95;;;16.60;81.00;;;;;;6259335;28;20052;-75
2023/05/30 04:13:00;;;;;;;7.05;4.18;;;16.60;81.50;;;;;;6258603;28;20065;-76
2023/05/30 04:16:04;;;;;;;7.82;4.05;;;16.60;81.40;;;;;;6254290;28;20053;-75
2023/05/30 04:19:06;;;;;;;7.97;4.00;;;16.60;81.30;;;;;;6253145;28;20049;-75
2023/05/30 04:22:09;;;;;;;8.27;4.00;;;16.60;81.20;;;;;;6251617;28;20061;-75
2023/05/30 04:25:11;;;;;;;7.90;3.97;;;16.60;81.50;;;;;;6251893;28;20053;-75
2023/05/30 04:28:16;;;;;;;10.13;3.85;;;16.50;82.20;;;;;;6250847;28;20050;-75
2023/05/30 04:31:20;;;;;;;9.05;4.30;;;16.60;82.60;;;;;;6251141;28;20059;-74
2023/05/30 04:34:22;;;;;;;7.60;3.95;;;16.60;83.00;;;;;;6251081;28;20053;-75
2023/05/30 04:37:27;;;;;;;8.55;4.00;;;16.70;83.20;;;;;;6250502;28;20072;-74
2023/05/30 04:40:29;;;;;;;6.95;3.75;;;16.70;83.40;;;;;;6250610;28;20050;-76
2023/05/30 04:43:31;;;;;;;6.57;3.70;;;16.70;83.50;;;;;;6250743;28;20054;-76
2023/05/30 04:46:36;;;;;;;7.93;4.30;;;16.70;82.80;;;;;;6250904;28;20042;-75
2023/05/30 04:49:39;;;;;;;7.57;4.07;;;16.80;83.80;;;;;;6250382;28;20053;-76
2023/05/30 04:52:41;;;;;;;7.47;3.72;;;16.80;84.30;;;;;;6250707;28;20060;-75
2023/05/30 04:55:44;;;;;;;6.50;4.00;;;16.80;84.90;;;;;;6250332;28;20041;-76
2023/05/30 04:58:46;;;;;;;7.28;3.80;;;16.80;84.90;;;;;;6250348;28;20045;-74
2023/05/30 05:01:49;;;;;;;7.15;3.97;;;16.80;84.70;;;;;;6251554;28;20049;-75
2023/05/30 05:04:51;;;;;;;9.13;4.10;;;16.80;84.90;;;;;;6250646;28;20049;-75
2023/05/30 05:07:53;;;;;;;7.80;4.20;;;16.80;85.10;;;;;;6250210;28;20060;-76
2023/05/30 05:10:55;;;;;;;8.50;3.92;;;16.70;85.60;;;;;;6250254;28;20045;-74
2023/05/30 05:13:57;;;;;;;7.18;3.83;;;16.80;86.20;;;;;;6250341;28;20049;-76
2023/05/30 05:17:00;;;;;;;6.35;3.80;;;16.80;86.90;;;;;;6250209;28;20041;-76
2023/05/30 05:20:05;;;;;;;7.30;3.95;;;16.80;87.10;;;;;;6249827;28;20045;-76
2023/05/30 05:23:07;;;;;;;8.55;4.10;;;16.90;86.90;;;;;;6250215;28;20107;-74
2023/05/30 05:26:09;;;;;;;8.82;4.07;;;16.90;86.80;;;;;;6250538;28;20052;-75
2023/05/30 05:29:11;;;;;;;7.53;3.90;;;17.00;87.20;;;;;;6249910;28;20068;-76
2023/05/30 05:32:15;;;;;;;6.68;3.88;;;17.00;88.00;;;;;;6248906;28;20138;-76
2023/05/30 05:35:16;;;;;;;8.15;4.00;;;17.00;89.30;;;;;;6227792;28;20053;-76
2023/05/30 05:38:18;;;;;;;6.22;3.75;;;17.00;89.90;;;;;;6225136;28;20119;-74
2023/05/30 05:41:20;;;;;;;7.60;3.83;;;17.00;89.80;;;;;;6224586;28;20054;-75
2023/05/30 05:44:22;;;;;;;8.73;3.80;;;17.10;89.70;;;;;;6224983;28;20046;-74
2023/05/30 05:47:25;;;;;;;9.98;4.18;;;17.10;89.80;;;;;;6224801;28;20056;-74
2023/05/30 05:50:27;;;;;;;7.78;4.30;;;17.20;90.00;;;;;;6225194;28;20046;-75
2023/05/30 05:53:29;;;;;;;8.18;4.07;;;17.30;90.00;;;;;;6224806;28;20060;-74
2023/05/30 05:56:31;;;;;;;10.25;4.50;;;17.20;88.20;;;;;;6225218;28;20407;-76
2023/05/30 05:59:33;;;;;;;9.05;4.20;;;17.30;84.90;;;;;;6225156;28;20057;-76
2023/05/30 06:02:36;;;;;;;8.30;4.05;;;17.30;83.80;;;;;;6224430;28;20060;-74
2023/05/30 06:05:38;;;;;;;9.02;4.18;;;17.40;84.70;;;;;;6224624;28;20061;-75
2023/05/30 06:08:40;;;;;;;8.15;4.20;;;17.40;84.00;;;;;;6224978;28;20060;-76
2023/05/30 06:11:42;;;;;;;9.93;4.05;;;17.50;83.50;;;;;;6224933;28;20049;-75
2023/05/30 06:14:44;;;;;;;10.13;4.03;;;17.50;84.10;;;;;;6224966;28;20053;-74
2023/05/30 06:17:47;;;;;;;8.48;4.20;;;17.30;85.30;;;;;;6224746;28;20053;-76
2023/05/30 06:20:49;;;;;;;8.43;4.00;;;17.50;84.90;;;;;;6226681;28;20061;-74
2023/05/30 06:23:51;;;;;;;8.73;4.30;;;17.50;85.60;;;;;;6250574;28;20166;-76
2023/05/30 06:26:53;;;;;;;8.50;4.15;;;17.40;84.70;;;;;;6249520;28;20045;-73
2023/05/30 06:29:55;;;;;;;11.70;4.75;;;17.60;83.60;;;;;;6249785;28;20060;-75
2023/05/30 06:32:58;;;;;;;9.18;4.30;;;17.60;84.20;;;;;;6248877;28;20049;-76
2023/05/30 06:36:00;;;;;;;8.27;4.65;;;17.80;83.60;;;;;;6248420;28;20487;-75
2023/05/30 06:39:02;;;;;;;11.10;4.63;;;17.40;84.70;;;;;;6249071;28;20053;-75
2023/05/30 06:42:05;;;;;;;7.95;4.05;;;17.60;84.00;;;;;;6248782;28;20454;-73
2023/05/30 06:45:08;;;;;;;8.73;4.70;;;17.80;83.20;;;;;;6248484;28;20042;-76
2023/05/30 06:48:11;;;;;;;11.82;4.20;;;17.90;82.40;;;;;;6248289;28;20042;-74
2023/05/30 06:51:13;;;;;;;7.15;3.67;;;18.00;81.50;;;;;;6249728;28;20415;-75
2023/05/30 06:54:15;;;;;;;7.57;3.83;;;17.90;81.60;;;;;;6253086;28;20041;-75
2023/05/30 06:57:17;;;;;;;8.95;4.00;;;17.90;81.40;;;;;;6253992;28;20566;-74
2023/05/30 07:00:20;;;;;;;8.43;4.07;;;17.80;82.50;;;;;;6250673;28;20057;-74
2023/05/30 07:03:24;;;;;;;9.10;4.22;;;17.90;81.50;;;;;;6249115;28;20056;-74
2023/05/30 07:06:26;;;;;;;;;;;18.10;79.90;;;;;;6248803;28;20403;-76
2023/05/30 07:09:28;;;;;;;6.78;3.90;;;18.10;80.70;;;;;;6248624;28;19925;-75
2023/05/30 07:12:30;;;;;;;11.45;4.15;;;18.10;80.50;;;;;;6249159;28;20076;-76
2023/05/30 07:15:32;;;;;;;8.00;4.03;;;18.30;80.00;;;;;;6252427;28;20499;-74
2023/05/30 07:18:35;;;;;;;9.23;4.20;;;18.20;80.40;;;;;;6258411;28;20041;-74
2023/05/30 07:21:37;;;;;;;9.65;4.13;;;18.10;81.30;;;;;;6263477;28;20053;-75
2023/05/30 07:24:39;;;;;;;7.53;3.80;;;18.40;79.70;;;;;;6259578;28;20054;-76
2023/05/30 07:27:42;;;;;;;9.25;3.95;;;18.30;80.40;;;;;;6265071;28;20061;-73
2023/05/30 07:30:43;;;;;;;10.25;4.13;;;18.50;80.10;;;;;;6259425;28;20049;-74
2023/05/30 07:33:47;;;;;;;9.15;3.90;;;18.40;79.10;;;;;;6263165;28;20137;-75
2023/05/30 07:36:49;;;;;;;9.50;3.97;;;18.50;79.80;;;;;;6252007;28;20056;-76
2023/05/30 07:39:51;;;;;;;9.20;3.83;;;18.50;80.40;;;;;;6248128;28;20506;-76
2023/05/30 07:42:52;;;;;;;7.45;4.10;;;18.80;79.60;;;;;;6249140;28;20061;-76
2023/05/30 07:45:54;;;;;;;8.38;3.75;;;18.70;78.20;;;;;;6248908;28;20045;-73
2023/05/30 07:48:57;;;;;;;8.60;3.92;;;18.50;78.10;;;;;;6248856;28;20046;-75
2023/05/30 07:51:59;;;;;;;7.60;3.50;;;18.50;77.80;;;;;;6264697;28;20418;-75
2023/05/30 07:55:01;;;;;;;8.02;3.90;;;18.50;78.50;;;;;;6271901;28;20053;-77
2023/05/30 07:58:03;;;;;;;9.40;4.07;;;18.60;78.00;;;;;;6273854;28;20044;-75
2023/05/30 08:01:06;;;;;;;7.72;3.78;;;18.60;77.20;;;;;;6259100;28;20475;-75
2023/05/30 08:04:09;;;;;;;7.07;3.70;;;18.60;78.10;;;;;;6251834;28;20049;-74
2023/05/30 08:07:12;;;;;;;7.72;3.90;;;18.70;77.70;;;;;;6251982;28;20053;-75
2023/05/30 08:10:14;;;;;;;9.25;4.10;;;18.70;76.70;;;;;;6234253;28;20053;-75
2023/05/30 08:13:16;;;;;;;8.65;4.20;;;18.50;76.90;;;;;;6234146;28;20041;-75
2023/05/30 08:16:18;;;;;;;8.57;3.85;;;18.50;78.10;;;;;;6251814;28;20060;-74
2023/05/30 08:19:22;;;;;;;9.30;4.35;;;18.80;78.20;;;;;;6251510;28;20058;-73
2023/05/30 08:22:24;;;;;;;8.40;4.00;;;19.10;76.50;;;;;;6251514;28;20049;-75
2023/05/30 08:25:35;;;;;;;7.38;4.03;;;19.20;76.30;;;;;;6251499;28;20487;-75
2023/05/30 08:28:37;;;;;;;8.77;3.97;;;19.30;75.90;;;;;;6252193;28;20051;-74
2023/05/30 08:31:38;;;;;;;8.25;3.75;;;19.20;75.50;;;;;;6251903;28;20056;-74
2023/05/30 08:34:42;;;;;;;8.98;4.13;;;19.30;76.30;;;;;;6251852;28;20049;-76
2023/05/30 08:37:43;;;;;;;9.70;4.03;;;19.40;77.00;;;;;;6251404;28;20786;-75
2023/05/30 08:40:46;;;;;;;8.43;3.90;;;19.50;77.00;;;;;;6250913;28;20064;-73
2023/05/30 08:43:48;;;;;;;11.77;4.47;;;19.30;76.30;;;;;;6250957;28;20060;-76
2023/05/30 08:46:50;;;;;;;9.35;3.78;;;19.40;75.60;;;;;;6251078;28;20057;-75
2023/05/30 08:49:53;;;;;;;7.75;4.00;;;19.30;76.20;;;;;;6250796;28;20407;-74
2023/05/30 08:53:04;;;;;;;9.38;4.10;;;19.30;77.20;;;;;;6251613;28;20049;-74
2023/05/30 08:56:11;;;;;;;6.47;3.67;;;19.60;75.70;;;;;;6251944;28;20049;-75
2023/05/30 08:59:16;;;;;;;9.52;3.95;;;19.70;74.90;;;;;;6251294;28;20045;-75
2023/05/30 09:02:20;;;;;;;9.43;3.95;;;19.80;75.10;;;;;;6251859;28;20059;-75
2023/05/30 09:05:25;;;;;;;8.00;4.18;;;19.40;76.30;;;;;;6251648;28;20058;-74
2023/05/30 09:08:28;;;;;;;9.07;4.22;;;19.50;75.90;;;;;;6250850;28;20046;-75
2023/05/30 09:11:30;;;;;;;7.60;3.90;;;19.60;75.00;;;;;;6250809;28;20059;-76
2023/05/30 09:14:32;;;;;;;8.73;3.95;;;19.70;74.00;;;;;;6251902;28;20399;-74
2023/05/30 09:17:34;;;;;;;8.45;4.20;;;19.70;75.20;;;;;;6250939;28;20054;-74
2023/05/30 09:20:39;;;;;;;10.45;4.10;;;19.80;75.30;;;;;;6251191;28;20225;-74
2023/05/30 09:23:42;;;;;;;7.63;3.90;;;19.70;74.00;;;;;;6250506;28;20064;-75
2023/05/30 09:26:58;;;;;;;6.88;3.65;;;19.80;74.10;;;;;;6250330;28;20463;-75
2023/05/30 09:30:07;;;;;;;7.43;4.05;;;19.90;74.10;;;;;;6250747;28;20046;-75
2023/05/30 09:33:09;;;;;;;6.70;3.67;;;19.90;74.10;;;;;;6250266;28;20056;-74
2023/05/30 09:36:18;;;;;;;8.00;3.88;;;20.00;74.10;;;;;;6249879;28;20060;-75
2023/05/30 09:39:20;;;;;;;9.00;3.95;;;20.00;74.30;;;;;;6249888;28;20487;-75
2023/05/30 09:42:22;;;;;;;7.82;3.90;;;20.10;74.20;;;;;;6250042;28;20052;-74
2023/05/30 09:45:25;;;;;;;7.65;3.97;;;20.10;73.70;;;;;;6250056;28;20065;-75
2023/05/30 09:48:27;;;;;;;8.38;4.22;;;20.00;74.30;;;;;;6249900;28;20049;-73
2023/05/30 09:51:31;;;;;;;9.02;4.18;;;20.10;74.90;;;;;;6249717;28;20051;-74
2023/05/30 09:54:34;;;;;;;8.52;3.78;;;20.20;74.60;;;;;;6250135;28;20045;-74
2023/05/30 09:57:38;;;;;;;9.40;4.13;;;20.30;74.10;;;;;;6249911;28;20056;-73
2023/05/30 10:00:51;;;;;;;8.40;4.13;;;20.30;73.70;;;;;;6249499;28;20046;-74
2023/05/30 10:03:53;;;;;;;9.85;4.20;;;20.30;72.80;;;;;;6249499;28;20049;-74
2023/05/30 10:06:59;;;;;;;8.43;4.10;;;20.40;72.70;;;;;;6250590;28;20046;-75
2023/05/30 10:10:01;;;;;;;9.10;4.10;;;20.40;73.30;;;;;;6250425;28;20406;-74
2023/05/30 10:13:03;;;;;;;7.65;4.10;;;20.40;73.60;;;;;;6249183;28;20049;-73
2023/05/30 10:16:10;;;;;;;9.70;3.70;;;20.50;73.30;;;;;;6249598;28;20483;-74
2023/05/30 10:19:17;;;;;;;9.70;3.55;;;20.60;72.90;;;;;;6248911;28;20049;-75
2023/05/30 10:22:21;;;;;;;8.18;3.90;;;20.70;72.60;;;;;;6249037;28;20064;-73
2023/05/30 10:25:28;;;;;;;10.27;3.70;;;20.60;72.40;;;;;;6249200;28;20095;-75
2023/05/30 10:28:31;;;;;;;10.40;4.50;;;20.80;72.90;;;;;;6248620;28;20049;-75
2023/05/30 10:31:34;;;;;;;9.82;4.13;;;20.80;72.20;;;;;;6248730;28;20499;-75
2023/05/30 10:34:42;;;;;;;7.63;3.85;;;20.90;72.00;;;;;;6248833;28;20053;-75
2023/05/30 10:37:47;;;;;;;9.93;3.47;;;21.00;72.20;;;;;;6251677;28;20052;-75
2023/05/30 10:41:00;;;;;;;8.10;3.85;;;21.00;72.40;;;;;;6248801;28;20414;-75
2023/05/30 10:44:16;;;;;;;10.25;3.70;;;21.10;70.70;;;;;;6249803;28;20049;-76
2023/05/30 10:47:34;;;;;;;7.60;3.75;;;21.10;69.20;;;;;;6249545;28;20091;-73
2023/05/30 10:50:46;;;;;;;6.18;3.35;;;21.20;70.20;;;;;;6251601;28;20096;-75
2023/05/30 10:53:49;;;;;;;6.60;3.42;;;21.30;70.30;;;;;;6251717;28;20057;-75
2023/05/30 10:56:52;;;;;;;6.82;3.63;;;21.30;69.50;;;;;;6249620;28;20053;-75
2023/05/30 10:59:56;;;;;;;7.05;3.30;;;21.50;70.50;;;;;;6249235;28;20482;-74
2023/05/30 11:02:57;;;;;;;8.30;3.70;;;21.50;68.70;;;;;;6248228;28;20458;-75
2023/05/30 11:06:01;;;;;;;6.22;3.80;;;21.50;69.20;;;;;;6247824;28;20064;-75
2023/05/30 11:09:11;;;;;;;8.90;3.80;;;21.60;70.30;;;;;;6248700;28;20054;-75
2023/05/30 11:12:22;;;;;;;11.75;5.65;;;21.60;69.00;;;;;;6248458;28;20467;-74
2023/05/30 11:15:34;;;;;;;8.18;4.30;;;21.60;68.90;;;;;;6248741;28;20045;-76
2023/05/30 11:18:41;;;;;;;6.28;3.50;;;21.60;70.40;;;;;;6248220;28;20046;-75
2023/05/30 11:22:02;;;;;;;10.18;3.63;;;21.80;68.50;;;;;;6247857;28;20519;-75
2023/05/30 11:25:23;;;;;;;5.68;3.58;;;21.70;66.30;;;;;;6247692;28;20049;-74
2023/05/30 11:28:36;;;;;;;8.30;3.47;;;21.80;66.90;;;;;;6247928;28;20053;-73
2023/05/30 11:31:38;;;;;;;;;;;21.80;67.40;;;;;;6252606;28;20046;-76
2023/05/30 11:34:40;;;;;;;5.97;3.37;;;21.90;67.30;;;;;;6252628;28;20259;-76
2023/05/30 11:37:43;;;;;;;6.63;3.47;;;22.10;66.50;;;;;;6252678;28;20061;-74
2023/05/30 11:40:47;;;;;;;8.63;3.78;;;22.20;66.60;;;;;;6252506;28;20153;-75
2023/05/30 11:43:50;;;;;;;7.45;3.35;;;22.30;66.70;;;;;;6251964;28;20045;-74
2023/05/30 11:47:00;;;;;;;7.27;3.63;;;22.30;66.00;;;;;;6251971;28;20045;-73
2023/05/30 11:50:01;;;;;;;8.68;3.42;;;22.50;65.90;;;;;;6251965;28;20128;-76
2023/05/30 11:53:10;;;;;;;7.25;3.10;;;22.80;66.20;;;;;;6252226;28;20069;-74
2023/05/30 11:56:13;;;;;;;6.53;3.25;;;23.00;66.10;;;;;;6251930;28;20064;-76
2023/05/30 11:59:19;;;;;;;7.50;3.35;;;23.10;64.60;;;;;;6251987;28;20048;-74
2023/05/30 12:02:26;;;;;;;7.00;3.50;;;23.10;64.10;;;;;;6251996;28;20053;-76
2023/05/30 12:05:30;;;;;;;10.55;3.80;;;23.20;65.30;;;;;;6252206;28;20049;-74
2023/05/30 12:08:33;;;;;;;8.57;3.90;;;23.00;62.60;;;;;;6251708;28;20099;-72
2023/05/30 12:11:36;;;;;;;6.60;3.55;;;22.90;62.50;;;;;;6251307;28;20045;-74
2023/05/30 12:14:39;;;;;;;;;;;22.80;62.70;;;;;;6251583;28;20052;-73
2023/05/30 12:17:41;;;;;;;7.47;3.60;;;23.10;62.10;;;;;;6251536;28;20379;-76
2023/05/30 12:20:44;;;;;;;10.85;6.90;;;23.40;62.80;;;;;;6251351;28;20061;-75
2023/05/30 12:23:46;;;;;;;5.80;3.22;;;23.60;61.30;;;;;;6251420;28;20045;-75
2023/05/30 12:26:50;;;;;;;5.97;3.43;;;23.70;61.30;;;;;;6251174;28;20045;-74
2023/05/30 12:29:52;;;;;;;7.32;3.92;;;23.70;60.70;;;;;;6250847;28;20046;-75
2023/05/30 12:32:56;;;;;;;7.27;3.67;;;23.90;60.60;;;;;;6251385;28;20046;-75
2023/05/30 12:35:58;;;;;;;7.28;3.50;;;24.00;60.40;;;;;;6251110;28;20480;-73
2023/05/30 12:39:00;;;;;;;6.43;3.08;;;23.80;60.10;;;;;;6250479;28;20138;-73
2023/05/30 12:42:08;;;;;;;7.75;3.42;;;24.00;59.10;;;;;;6250189;28;20514;-74
2023/05/30 12:45:12;;;;;;;7.15;3.35;;;24.30;58.70;;;;;;6251112;28;20057;-75
2023/05/30 12:48:14;;;;;;;6.45;3.40;;;24.50;60.00;;;;;;6252351;28;20049;-75
2023/05/30 12:51:16;;;;;;;6.97;3.00;;;24.80;59.20;;;;;;6266214;28;20045;-74
2023/05/30 12:54:18;;;;;;;8.15;3.13;;;24.80;56.70;;;;;;6264833;28;20060;-74
2023/05/30 12:57:24;;;;;;;9.18;3.03;;;25.00;56.90;;;;;;6264676;28;20055;-74
2023/05/30 13:00:27;;;;;;;8.68;3.15;;;25.20;58.30;;;;;;6262430;28;20127;-74
2023/05/30 13:03:29;;;;;;;5.07;3.22;;;25.30;57.80;;;;;;6233974;28;20085;-73
2023/05/30 13:06:31;;;;;;;7.45;4.47;;;25.20;56.80;;;;;;6250884;28;20053;-76
2023/05/30 13:09:34;;;;;;;8.55;3.75;;;25.30;56.00;;;;;;6250607;28;20562;-76
2023/05/30 13:12:37;;;;;;;7.95;3.20;;;25.50;55.80;;;;;;6250932;28;20052;-75
2023/05/30 13:15:39;;;;;;;;;;;25.40;56.50;;;;;;6250736;28;20045;-75
2023/05/30 13:18:41;;;;;;;9.98;3.45;;;25.60;56.10;;;;;;6249852;28;20359;-74
2023/05/30 13:21:44;;;;;;;6.18;2.92;;;25.80;55.70;;;;;;6249796;28;20057;-75
2023/05/30 13:24:46;;;;;;;7.07;2.97;;;26.00;55.90;;;;;;6232583;28;20471;-74
2023/05/30 13:27:50;;;;;;;7.72;3.03;;;26.00;55.50;;;;;;6250232;28;20060;-74
2023/05/30 13:30:52;;;;;;;6.22;3.20;;;25.90;54.90;;;;;;6250159;28;20048;-76
2023/05/30 13:33:56;;;;;;;7.73;3.30;;;25.70;54.20;;;;;;6249202;28;20060;-75
2023/05/30 13:36:58;;;;;;;6.38;3.35;;;25.70;54.30;;;;;;6249340;28;20056;-74
2023/05/30 13:39:59;;;;;;;6.00;3.03;;;25.80;54.50;;;;;;6249362;28;20052;-75
2023/05/30 13:43:03;;;;;;;6.97;3.13;;;25.90;53.40;;;;;;6249134;28;20392;-75
2023/05/30 13:46:05;;;;;;;6.68;3.25;;;26.20;54.60;;;;;;6248605;28;20053;-74
2023/05/30 13:49:07;;;;;;;8.27;3.10;;;26.40;54.90;;;;;;6249067;28;20052;-75
2023/05/30 13:52:09;;;;;;;9.07;3.17;;;26.60;53.20;;;;;;6248511;28;20511;-75
2023/05/30 13:55:11;;;;;;;6.90;3.20;;;26.60;53.60;;;;;;6249059;28;20304;-73
2023/05/30 13:58:14;;;;;;;6.18;2.85;;;26.20;53.20;;;;;;6248898;28;20053;-75
2023/05/30 14:01:16;;;;;;;7.72;3.22;;;26.20;52.80;;;;;;6231107;28;20045;-75
2023/05/30 14:04:18;;;;;;;6.97;3.10;;;26.40;53.10;;;;;;6248756;28;20495;-75
2023/05/30 14:07:20;;;;;;;6.07;3.10;;;26.30;53.40;;;;;;6248863;28;20061;-72
2023/05/30 14:10:22;;;;;;;6.03;3.33;;;26.40;53.60;;;;;;6248786;28;20487;-76
2023/05/30 14:13:25;;;;;;;7.22;3.22;;;26.70;54.10;;;;;;6248674;28;20057;-73
2023/05/30 14:16:29;;;;;;;7.90;3.03;;;27.00;53.00;;;;;;6248478;28;20072;-75
2023/05/30 14:19:32;;;;;;;8.82;3.10;;;27.10;51.40;;;;;;6248188;28;20385;-77
2023/05/30 14:22:33;;;;;;;5.90;3.10;;;27.30;51.90;;;;;;6251256;28;20061;-76
2023/05/30 14:25:36;;;;;;;6.70;3.28;;;27.40;51.20;;;;;;6272774;28;20049;-76
2023/05/30 14:28:41;;;;;;;6.43;3.30;;;27.70;51.30;;;;;;6268974;28;20099;-75
2023/05/30 14:31:42;;;;;;;6.18;3.15;;;27.90;50.90;;;;;;6263591;28;20049;-76
2023/05/30 14:34:44;;;;;;;6.63;3.00;;;27.70;51.30;;;;;;6250005;28;20480;-73
2023/05/30 14:37:46;;;;;;;7.57;2.65;;;27.80;51.50;;;;;;6250145;28;20052;-75
2023/05/30 14:40:50;;;;;;;8.57;3.25;;;28.00;51.70;;;;;;6247774;28;20045;-73
2023/05/30 14:43:53;;;;;;;7.80;3.88;;;27.80;51.20;;;;;;6247715;28;20402;-73
2023/05/30 14:46:56;;;;;;;7.85;3.38;;;27.70;51.60;;;;;;6248403;28;20398;-73
2023/05/30 14:49:58;;;;;;;7.60;3.13;;;27.50;49.70;;;;;;6247913;28;20054;-74
2023/05/30 14:53:02;;;;;;;6.38;3.10;;;27.10;50.20;;;;;;6247918;28;20049;-75
2023/05/30 14:56:04;;;;;;;7.50;2.88;;;26.50;50.70;;;;;;6248693;28;20056;-74
2023/05/30 14:59:08;;;;;;;5.43;3.25;;;26.70;51.10;;;;;;6248111;28;20068;-76
2023/05/30 15:02:09;;;;;;;6.88;3.00;;;26.60;50.90;;;;;;6250619;28;20057;-76
2023/05/30 15:05:11;;;;;;;7.47;2.88;;;27.10;53.00;;;;;;6253411;28;20128;-73
2023/05/30 15:08:13;;;;;;;8.93;3.08;;;27.70;51.10;;;;;;6252848;28;20097;-75
2023/05/30 15:11:15;;;;;;;6.30;2.78;;;28.00;51.40;;;;;;6252814;28;20049;-75
2023/05/30 15:14:18;;;;;;;8.10;3.30;;;28.20;50.70;;;;;;6252769;28;20057;-75
2023/05/30 15:17:20;;;;;;;6.78;2.90;;;28.20;50.00;;;;;;6252828;28;20415;-75
2023/05/30 15:20:22;;;;;;;7.13;2.83;;;28.10;50.30;;;;;;6252640;28;20107;-75
2023/05/30 15:23:24;;;;;;;6.68;3.17;;;27.40;49.80;;;;;;6252668;28;20498;-75
2023/05/30 15:26:27;;;;;;;6.80;3.00;;;27.40;49.60;;;;;;6234791;28;20050;-75
2023/05/30 15:29:32;;;;;;;8.15;3.17;;;27.70;50.00;;;;;;6252185;28;20141;-74
2023/05/30 15:32:34;;;;;;;6.70;3.17;;;28.20;48.70;;;;;;6252466;28;20053;-74
2023/05/30 15:35:36;;;;;;;7.47;2.90;;;28.60;48.00;;;;;;6251819;28;20049;-74
2023/05/30 15:38:38;;;;;;;6.63;2.63;;;28.70;48.20;;;;;;6252243;28;20049;-74
2023/05/30 15:41:43;;;;;;;6.30;2.90;;;29.00;48.00;;;;;;6251894;28;20304;-74
2023/05/30 15:44:46;;;;;;;6.97;2.67;;;28.80;49.00;;;;;;6252593;28;20050;-75
2023/05/30 15:47:49;;;;;;;5.35;2.75;;;29.00;49.00;;;;;;6251716;28;20060;-75
2023/05/30 15:50:51;;;;;;;5.90;2.80;;;29.50;48.60;;;;;;6252165;28;20399;-75
2023/05/30 15:53:53;;;;;;;9.32;2.95;;;29.70;48.00;;;;;;6253681;28;20052;-76
2023/05/30 15:56:55;;;;;;;5.93;3.15;;;29.80;47.10;;;;;;6252437;28;20049;-75